Time;durP1;ratioP1;P1;durP2;ratioP2;P2;SDS_P1;SDS_P2;PMS_P1;PMS_P2;Temp;Humidity;BMP_temperature;BMP_pressure;BME280_temperature;BME280_humidity;BME280_pressure;Samples;Min_cycle;Max_cycle;Signal;HPM_P1;HPM_P2
2023/08/29 00:01:25;;;;;;;13.25;9.60;;;;;;;;;;4965051;29;20190;-86
2023/08/29 00:03:55;;;;;;;13.07;8.88;;;;;;;;;;4966357;29;20344;-86
2023/08/29 00:06:27;;;;;;;17.15;9.20;;;;;;;;;;4949505;29;20115;-86
2023/08/29 00:08:55;;;;;;;12.07;8.88;;;;;;;;;;4966414;29;20051;-88
2023/08/29 00:11:32;;;;;;;17.33;10.55;;;;;;;;;;4951482;29;20402;-89
2023/08/29 00:14:47;;;;;;;14.60;10.70;;;;;;;;;;4954497;29;20146;-86
2023/08/29 00:17:28;;;;;;;13.73;10.55;;;;;;;;;;4963896;28;20055;-86
2023/08/29 00:23:43;;;;;;;16.23;9.88;;;;;;;;;;4973676;28;20171;-86
2023/08/29 00:26:14;;;;;;;15.60;9.18;;;;;;;;;;4950734;29;20380;-86
2023/08/29 00:28:59;;;;;;;13.35;10.00;;;;;;;;;;4951430;29;20062;-87
2023/08/29 00:31:34;;;;;;;12.90;9.13;;;;;;;;;;4975338;28;20046;-87
2023/08/29 00:34:06;;;;;;;12.65;9.57;;;;;;;;;;4990204;28;20050;-87
2023/08/29 00:36:38;;;;;;;17.98;11.18;;;;;;;;;;4984560;28;20058;-87
2023/08/29 00:39:11;;;;;;;14.32;10.43;;;;;;;;;;4985645;28;20058;-87
2023/08/29 00:41:51;;;;;;;12.93;10.05;;;;;;;;;;4984257;28;20127;-87
2023/08/29 00:44:23;;;;;;;12.15;10.20;;;;;;;;;;4984434;28;20150;-86
2023/08/29 00:53:22;;;;;;;19.67;11.65;;;;;;;;;;4985980;28;20097;-87
2023/08/29 00:55:51;;;;;;;18.67;11.18;;;;;;;;;;4985757;28;20055;-86
2023/08/29 00:58:23;;;;;;;15.85;11.85;;;;;;;;;;4987740;28;20195;-86
2023/08/29 01:01:01;;;;;;;17.35;11.73;;;;;;;;;;4989200;28;20074;-86
2023/08/29 01:03:33;;;;;;;16.27;11.25;;;;;;;;;;4990768;28;20050;-86
2023/08/29 01:06:38;;;;;;;19.05;11.30;;;;;;;;;;4991551;28;20090;-85
2023/08/29 01:09:08;;;;;;;15.63;11.98;;;;;;;;;;4986905;28;20051;-85
2023/08/29 01:11:57;;;;;;;15.25;10.02;;;;;;;;;;4984549;28;20055;-86
2023/08/29 01:14:36;;;;;;;15.15;10.43;;;;;;;;;;4988016;28;20082;-86
2023/08/29 01:17:09;;;;;;;13.40;10.95;;;;;;;;;;4989047;28;20050;-86
2023/08/29 01:19:44;;;;;;;16.90;11.65;;;;;;;;;;4987214;28;20115;-87
2023/08/29 01:22:25;;;;;;;15.82;10.90;;;;;;;;;;4986341;28;20059;-86
2023/08/29 01:25:03;;;;;;;16.92;11.75;;;;;;;;;;4986833;28;20042;-87
2023/08/29 01:27:45;;;;;;;18.50;12.70;;;;;;;;;;4989953;28;20050;-86
2023/08/29 01:30:19;;;;;;;17.13;12.60;;;;;;;;;;4994011;28;20066;-87
2023/08/29 01:33:09;;;;;;;17.60;12.25;;;;;;;;;;5081294;23;20066;-88
2023/08/29 01:35:54;;;;;;;14.70;11.05;;;;;;;;;;4956735;29;20035;-85
2023/08/29 01:38:42;;;;;;;18.23;11.38;;;;;;;;;;4946735;28;20032;-87
2023/08/29 01:41:23;;;;;;;17.25;12.05;;;;;;;;;;4957417;28;20059;-87
2023/08/29 01:44:08;;;;;;;18.17;12.38;;;;;;;;;;4957847;28;20063;-86
2023/08/29 01:46:52;;;;;;;19.00;11.48;;;;;;;;;;4957529;28;20066;-88
2023/08/29 01:49:34;;;;;;;20.67;12.70;;;;;;;;;;4958916;28;20030;-88
2023/08/29 01:52:06;;;;;;;20.00;13.35;;;;;;;;;;4959305;28;20067;-89
2023/08/29 01:54:50;;;;;;;17.30;12.75;;;;;;;;;;4972172;28;20072;-88
2023/08/29 01:57:36;;;;;;;15.65;10.68;;;;;;;;;;4959974;28;20050;-88
2023/08/29 02:00:27;;;;;;;16.15;10.68;;;;;;;;;;4973842;28;20079;-86
2023/08/29 02:03:08;;;;;;;14.48;10.60;;;;;;;;;;4958692;28;20043;-87
2023/08/29 02:06:07;;;;;;;11.90;9.75;;;;;;;;;;4974228;28;20039;-88
2023/08/29 02:08:48;;;;;;;16.08;11.32;;;;;;;;;;4960020;28;20071;-87
2023/08/29 02:11:40;;;;;;;14.82;9.82;;;;;;;;;;4958406;28;20036;-88
2023/08/29 02:14:33;;;;;;;13.40;10.38;;;;;;;;;;4960328;28;20054;-87
2023/08/29 02:17:15;;;;;;;13.80;10.45;;;;;;;;;;4958576;28;20095;-88
2023/08/29 02:19:52;;;;;;;15.07;10.70;;;;;;;;;;4959387;28;20064;-88
2023/08/29 02:22:34;;;;;;;13.35;10.02;;;;;;;;;;4958239;28;20030;-87
2023/08/29 02:25:16;;;;;;;12.60;9.60;;;;;;;;;;4958703;28;20038;-89
2023/08/29 02:28:03;;;;;;;14.73;9.27;;;;;;;;;;4959789;28;20043;-88
2023/08/29 02:30:51;;;;;;;15.52;10.40;;;;;;;;;;4967328;28;20032;-88
2023/08/29 02:37:15;;;;;;;11.88;9.10;;;;;;;;;;4961893;28;20035;-87
2023/08/29 02:39:56;;;;;;;14.25;10.77;;;;;;;;;;4962285;28;20027;-88
2023/08/29 02:42:36;;;;;;;16.98;11.13;;;;;;;;;;5080920;23;20043;-88
2023/08/29 02:45:25;;;;;;;13.68;9.73;;;;;;;;;;4967344;28;20063;-87
2023/08/29 02:48:00;;;;;;;13.60;10.18;;;;;;;;;;5099834;23;20070;-90
2023/08/29 02:51:10;;;;;;;14.55;9.82;;;;;;;;;;4981144;28;20051;-86
2023/08/29 02:53:56;;;;;;;11.57;8.63;;;;;;;;;;4980355;28;20058;-87
2023/08/29 03:01:50;;;;;;;16.17;12.00;;;;;;;;;;4979755;28;20043;-87
2023/08/29 03:04:57;;;;;;;19.30;13.20;;;;;;;;;;4967450;28;20039;-86
2023/08/29 03:08:09;;;;;;;16.45;11.05;;;;;;;;;;4981780;28;20074;-87
2023/08/29 03:10:54;;;;;;;18.17;11.50;;;;;;;;;;4966229;28;20039;-87
2023/08/29 03:14:00;;;;;;;15.93;10.32;;;;;;;;;;4971190;28;20066;-88
2023/08/29 03:16:44;;;;;;;14.25;10.35;;;;;;;;;;4972787;28;20059;-87
2023/08/29 03:22:48;;;;;;;19.40;13.30;;;;;;;;;;4971671;29;20066;-86
2023/08/29 03:25:21;;;;;;;21.35;13.95;;;;;;;;;;4968445;29;20051;-86
2023/08/29 03:31:19;;;;;;;17.00;11.60;;;;;;;;;;4972014;29;20112;-89
2023/08/29 03:33:49;;;;;;;16.48;11.35;;;;;;;;;;4971710;29;20085;-89
2023/08/29 03:52:37;;;;;;;23.17;14.65;;;;;;;;;;4963597;28;20036;-89
2023/08/29 04:03:30;;;;;;;23.77;16.33;;;;;;;;;;5257105;23;20070;-88
2023/08/29 04:06:32;;;;;;;23.65;16.15;;;;;;;;;;5070060;23;20065;-90
2023/08/29 04:09:23;;;;;;;22.92;15.77;;;;;;;;;;5124633;23;20047;-89
2023/08/29 04:12:11;;;;;;;23.33;15.68;;;;;;;;;;4978628;28;20121;-88
2023/08/29 04:18:08;;;;;;;20.98;14.90;;;;;;;;;;5091666;23;20039;-90
2023/08/29 04:20:52;;;;;;;22.73;16.83;;;;;;;;;;5069612;23;20042;-89
2023/08/29 04:23:37;;;;;;;25.73;16.98;;;;;;;;;;4984599;28;20038;-87
2023/08/29 04:27:12;;;;;;;;;;;;;;;;;;;;;
2023/08/29 04:30:18;;;;;;;28.60;18.63;;;;;;;;;;4986659;28;20083;-89
2023/08/29 04:32:59;;;;;;;28.35;16.83;;;;;;;;;;4998257;28;20034;-87
2023/08/29 04:35:42;;;;;;;23.65;16.67;;;;;;;;;;4999013;28;20027;-87
2023/08/29 04:38:35;;;;;;;26.42;17.27;;;;;;;;;;4998050;28;20043;-88
2023/08/29 04:44:21;;;;;;;24.20;16.15;;;;;;;;;;5432095;23;20062;-88
2023/08/29 04:47:04;;;;;;;26.27;17.65;;;;;;;;;;4963187;28;20071;-87
2023/08/29 04:55:05;;;;;;;27.30;17.65;;;;;;;;;;5231480;23;20091;-88
2023/08/29 04:57:56;;;;;;;25.08;16.30;;;;;;;;;;4962788;28;20035;-90
2023/08/29 05:03:35;;;;;;;32.88;21.33;;;;;;;;;;5008306;23;20067;-89
2023/08/29 05:06:24;;;;;;;32.30;18.58;;;;;;;;;;4978181;28;20051;-88
2023/08/29 05:12:37;;;;;;;25.67;17.15;;;;;;;;;;4979390;28;20042;-88
2023/08/29 05:15:28;;;;;;;30.00;19.42;;;;;;;;;;4964527;28;20043;-87
2023/08/29 05:44:46;;;;;;;;;;;;;;;;;;;;;
2023/08/29 06:37:55;;;;;;;15.52;10.60;;;;;;;;;;1337799;27;20039;-90
2023/08/29 06:40:45;;;;;;;14.45;10.75;;;;;;;;;;4984702;28;20041;-89
2023/08/29 06:44:02;;;;;;;12.48;9.05;;;;;;;;;;4976532;28;20055;-89
2023/08/29 07:43:04;;;;;;;;;;;;;;;;;;;;;
2023/08/29 15:22:01;;;;;;;1.77;0.50;;;;;;;;;;5891709;23;20023;-90
2023/08/29 16:03:29;;;;;;;2.00;0.63;;;;;;;;;;5270953;23;20074;-90
2023/08/29 19:59:12;;;;;;;6.57;2.20;;;;;;;;;;2895970;23;20115;-90
2023/08/29 20:15:32;;;;;;;4.80;2.20;;;;;;;;;;5117013;23;20056;31
2023/08/29 20:18:34;;;;;;;5.10;2.28;;;;;;;;;;2059791;23;19946;-90
2023/08/29 20:21:45;;;;;;;4.75;2.40;;;;;;;;;;4883161;29;20131;-89
2023/08/29 20:27:05;;;;;;;4.47;2.33;;;;;;;;;;5159690;23;20064;-90
2023/08/29 20:29:52;;;;;;;3.88;2.17;;;;;;;;;;4944661;28;20066;-89
2023/08/29 20:32:31;;;;;;;2.58;2.03;;;;;;;;;;4945332;29;20124;-90
2023/08/29 20:35:04;;;;;;;3.95;2.20;;;;;;;;;;4944507;29;20079;-89
2023/08/29 20:40:44;;;;;;;3.17;2.10;;;;;;;;;;4949985;29;20052;-88
2023/08/29 20:43:16;;;;;;;5.32;2.17;;;;;;;;;;4951436;29;20063;-89
2023/08/29 20:46:01;;;;;;;9.35;2.42;;;;;;;;;;4949073;28;20124;-86
2023/08/29 20:48:31;;;;;;;8.18;3.20;;;;;;;;;;4932534;29;20052;-86
2023/08/29 20:51:02;;;;;;;9.98;3.40;;;;;;;;;;4948058;29;20080;-86
2023/08/29 20:53:46;;;;;;;4.38;3.10;;;;;;;;;;4950067;29;20051;-86
2023/08/29 20:56:17;;;;;;;7.05;2.70;;;;;;;;;;4950654;29;20047;-86
2023/08/29 20:58:46;;;;;;;5.47;3.00;;;;;;;;;;4948216;29;20075;-86
2023/08/29 21:01:17;;;;;;;5.32;2.88;;;;;;;;;;4946997;29;20070;-88
2023/08/29 21:03:46;;;;;;;4.65;2.53;;;;;;;;;;4946519;29;20047;-87
2023/08/29 21:06:26;;;;;;;3.95;2.72;;;;;;;;;;4946088;29;20307;-87
2023/08/29 21:08:59;;;;;;;4.05;2.58;;;;;;;;;;4945952;29;20114;-87
2023/08/29 21:11:35;;;;;;;5.13;3.78;;;;;;;;;;4946037;29;20059;-87
2023/08/29 21:14:21;;;;;;;4.53;2.92;;;;;;;;;;4947563;29;20180;-88
2023/08/29 21:16:57;;;;;;;6.28;3.42;;;;;;;;;;4942101;29;20082;-87
2023/08/29 21:19:41;;;;;;;6.07;3.00;;;;;;;;;;4941537;29;20098;-88
2023/08/29 21:22:10;;;;;;;4.93;3.00;;;;;;;;;;4942253;29;20114;-87
2023/08/29 21:24:39;;;;;;;5.32;2.70;;;;;;;;;;4941716;29;20424;-86
2023/08/29 21:27:19;;;;;;;9.05;3.22;;;;;;;;;;4942657;29;20051;-88
2023/08/29 21:30:04;;;;;;;5.38;3.13;;;;;;;;;;4935605;29;20437;-87
2023/08/29 21:32:46;;;;;;;6.82;3.40;;;;;;;;;;4925718;29;20055;-87
2023/08/29 21:35:20;;;;;;;6.65;3.70;;;;;;;;;;4925183;29;20056;-86
2023/08/29 21:37:49;;;;;;;5.65;3.13;;;;;;;;;;4941077;29;20066;-87
2023/08/29 21:40:18;;;;;;;5.50;3.05;;;;;;;;;;4925005;29;20060;-87
2023/08/29 21:43:05;;;;;;;7.25;3.35;;;;;;;;;;4923436;29;20111;-87
2023/08/29 21:45:40;;;;;;;5.43;3.58;;;;;;;;;;4924216;29;20048;-86
2023/08/29 21:48:20;;;;;;;5.57;3.72;;;;;;;;;;4924028;29;20143;-86
2023/08/29 21:50:58;;;;;;;6.07;3.72;;;;;;;;;;4923544;29;20189;-85
2023/08/29 21:53:47;;;;;;;8.60;3.67;;;;;;;;;;4921829;29;20050;-86
2023/08/29 21:56:22;;;;;;;5.13;3.55;;;;;;;;;;4937788;29;20055;-86
2023/08/29 21:58:57;;;;;;;6.93;3.85;;;;;;;;;;4922953;29;20059;-86
2023/08/29 22:01:33;;;;;;;5.10;3.30;;;;;;;;;;4924591;29;20072;-86
2023/08/29 22:04:08;;;;;;;5.55;3.10;;;;;;;;;;4931598;29;20040;-87
2023/08/29 22:06:59;;;;;;;6.07;3.20;;;;;;;;;;4922378;29;20047;-86
2023/08/29 22:09:31;;;;;;;4.65;3.35;;;;;;;;;;4923989;29;20120;-86
2023/08/29 22:12:17;;;;;;;5.55;3.55;;;;;;;;;;4928883;29;20054;-89
2023/08/29 22:15:03;;;;;;;;;;;;;;;;;;;;;
2023/08/29 22:17:44;;;;;;;5.03;3.45;;;;;;;;;;4927343;29;20071;-89
2023/08/29 22:20:25;;;;;;;7.57;3.50;;;;;;;;;;4931480;29;20054;-89
2023/08/29 22:22:56;;;;;;;7.28;3.78;;;;;;;;;;4927976;29;20124;-89
2023/08/29 22:25:27;;;;;;;6.80;4.35;;;;;;;;;;4926312;29;20068;-87
2023/08/29 22:28:03;;;;;;;7.22;3.90;;;;;;;;;;4933382;29;20052;-87
2023/08/29 22:30:43;;;;;;;10.60;4.05;;;;;;;;;;4948240;29;20246;-87
2023/08/29 22:33:16;;;;;;;7.70;4.53;;;;;;;;;;4950296;29;20047;-87
2023/08/29 22:39:10;;;;;;;5.95;4.28;;;;;;;;;;4948131;29;20030;-87
2023/08/29 22:41:42;;;;;;;5.22;3.60;;;;;;;;;;4943270;29;20058;-87
2023/08/29 22:44:18;;;;;;;6.25;4.32;;;;;;;;;;4943948;29;20119;-87
2023/08/29 22:46:57;;;;;;;7.72;4.95;;;;;;;;;;4943660;29;20417;-88
2023/08/29 22:49:26;;;;;;;6.43;4.57;;;;;;;;;;4943534;29;20106;-89
2023/08/29 22:52:10;;;;;;;7.35;5.03;;;;;;;;;;4944490;29;20079;-88
2023/08/29 22:54:38;;;;;;;7.85;5.07;;;;;;;;;;4947898;29;20369;-89
2023/08/29 22:57:05;;;;;;;10.00;5.20;;;;;;;;;;4949019;29;20079;-89
2023/08/29 22:59:33;;;;;;;6.85;4.90;;;;;;;;;;4950429;29;20055;-89
2023/08/29 23:02:10;;;;;;;8.32;5.35;;;;;;;;;;4949452;29;20063;-88
2023/08/29 23:04:38;;;;;;;6.38;4.82;;;;;;;;;;4952165;29;20099;-89
2023/08/29 23:07:12;;;;;;;9.10;5.45;;;;;;;;;;4934978;29;20061;-89
2023/08/29 23:09:43;;;;;;;9.80;5.50;;;;;;;;;;4954509;28;20055;-89
2023/08/29 23:12:10;;;;;;;9.70;5.95;;;;;;;;;;4950367;29;20055;-89
2023/08/29 23:14:37;;;;;;;9.63;6.20;;;;;;;;;;4952711;29;20055;-87
2023/08/29 23:17:07;;;;;;;7.50;5.32;;;;;;;;;;4953419;29;20130;-89
2023/08/29 23:19:37;;;;;;;11.23;6.35;;;;;;;;;;4952633;28;20059;-89
2023/08/29 23:22:08;;;;;;;11.27;6.13;;;;;;;;;;4949169;29;20047;-89
2023/08/29 23:24:36;;;;;;;13.68;6.68;;;;;;;;;;4950823;29;20095;-90
2023/08/29 23:27:05;;;;;;;11.73;7.00;;;;;;;;;;4950723;29;20062;-89
2023/08/29 23:29:36;;;;;;;14.50;8.52;;;;;;;;;;4934810;29;20134;-89
2023/08/29 23:32:04;;;;;;;13.63;7.70;;;;;;;;;;4950340;29;20122;-89
2023/08/29 23:34:41;;;;;;;12.38;7.13;;;;;;;;;;4951532;29;20124;-89
2023/08/29 23:37:12;;;;;;;11.30;7.22;;;;;;;;;;4951565;29;20059;-89
2023/08/29 23:39:45;;;;;;;16.20;8.45;;;;;;;;;;4947791;29;20071;-89
2023/08/29 23:42:36;;;;;;;13.65;7.68;;;;;;;;;;4952999;29;20067;-87
2023/08/29 23:45:08;;;;;;;17.67;8.18;;;;;;;;;;4941157;29;20059;-88
2023/08/29 23:47:54;;;;;;;12.35;8.70;;;;;;;;;;4950694;29;20165;-88
2023/08/29 23:50:22;;;;;;;13.13;7.65;;;;;;;;;;4949314;29;20108;-88
2023/08/29 23:52:57;;;;;;;14.77;8.82;;;;;;;;;;4949836;29;20074;-89
2023/08/29 23:55:25;;;;;;;14.32;8.70;;;;;;;;;;4934270;29;20051;-89
2023/08/29 23:57:53;;;;;;;13.55;8.07;;;;;;;;;;4951976;29;20051;-88
